sensor_id;sensor_type;location;lat;lon;timestamp;temperature;humidity
21662;DHT22;10992;48.170;8.596;2023-02-01T00:00:31;1.60;99.90
21662;DHT22;10992;48.170;8.596;2023-02-01T00:03:01;1.60;99.90
21662;DHT22;10992;48.170;8.596;2023-02-01T00:05:28;1.50;99.90
21662;DHT22;10992;48.170;8.596;2023-02-01T00:07:55;1.50;99.90
21662;DHT22;10992;48.170;8.596;2023-02-01T00:10:22;1.50;99.90
21662;DHT22;10992;48.170;8.596;2023-02-01T00:12:49;1.40;99.90
21662;DHT22;10992;48.170;8.596;2023-02-01T00:15:16;1.40;99.90
21662;DHT22;10992;48.170;8.596;2023-02-01T00:17:43;1.40;99.90
21662;DHT22;10992;48.170;8.596;2023-02-01T00:20:11;1.30;99.90
21662;DHT22;10992;48.170;8.596;2023-02-01T00:22:37;1.30;99.90
21662;DHT22;10992;48.170;8.596;2023-02-01T00:25:05;1.30;99.90
21662;DHT22;10992;48.170;8.596;2023-02-01T00:27:32;1.30;99.90
21662;DHT22;10992;48.170;8.596;2023-02-01T00:29:59;1.30;99.90
21662;DHT22;10992;48.170;8.596;2023-02-01T00:32:26;1.30;99.90
21662;DHT22;10992;48.170;8.596;2023-02-01T00:34:52;1.30;99.90
21662;DHT22;10992;48.170;8.596;2023-02-01T00:37:19;1.40;99.90
21662;DHT22;10992;48.170;8.596;2023-02-01T00:39:47;1.30;99.90
21662;DHT22;10992;48.170;8.596;2023-02-01T00:42:14;1.30;99.90
21662;DHT22;10992;48.170;8.596;2023-02-01T00:44:41;1.30;99.90
21662;DHT22;10992;48.170;8.596;2023-02-01T00:47:07;1.30;99.90
21662;DHT22;10992;48.170;8.596;2023-02-01T00:49:34;1.30;99.90
21662;DHT22;10992;48.170;8.596;2023-02-01T00:52:01;1.30;99.90
21662;DHT22;10992;48.170;8.596;2023-02-01T00:54:28;1.30;99.90
21662;DHT22;10992;48.170;8.596;2023-02-01T00:56:55;1.30;99.90
21662;DHT22;10992;48.170;8.596;2023-02-01T00:59:22;1.30;99.90
21662;DHT22;10992;48.170;8.596;2023-02-01T01:01:49;1.30;99.90
21662;DHT22;10992;48.170;8.596;2023-02-01T01:04:16;1.30;99.90
21662;DHT22;10992;48.170;8.596;2023-02-01T01:06:43;1.30;99.90
21662;DHT22;10992;48.170;8.596;2023-02-01T01:09:10;1.30;99.90
21662;DHT22;10992;48.170;8.596;2023-02-01T01:11:37;1.40;99.90
21662;DHT22;10992;48.170;8.596;2023-02-01T01:14:07;1.30;99.90
21662;DHT22;10992;48.170;8.596;2023-02-01T01:16:35;1.40;99.90
21662;DHT22;10992;48.170;8.596;2023-02-01T01:19:02;1.40;99.90
21662;DHT22;10992;48.170;8.596;2023-02-01T01:21:30;1.40;99.90
21662;DHT22;10992;48.170;8.596;2023-02-01T01:23:57;1.40;99.90
21662;DHT22;10992;48.170;8.596;2023-02-01T01:26:26;1.40;99.90
21662;DHT22;10992;48.170;8.596;2023-02-01T01:28:58;1.40;99.90
21662;DHT22;10992;48.170;8.596;2023-02-01T01:31:26;1.40;99.90
21662;DHT22;10992;48.170;8.596;2023-02-01T01:33:56;1.40;99.90
21662;DHT22;10992;48.170;8.596;2023-02-01T01:36:25;1.40;99.90
21662;DHT22;10992;48.170;8.596;2023-02-01T01:38:52;1.40;99.90
21662;DHT22;10992;48.170;8.596;2023-02-01T01:41:23;1.40;99.90
21662;DHT22;10992;48.170;8.596;2023-02-01T01:43:57;1.40;99.90
21662;DHT22;10992;48.170;8.596;2023-02-01T01:46:31;1.40;99.90
21662;DHT22;10992;48.170;8.596;2023-02-01T01:49:11;1.40;99.90
21662;DHT22;10992;48.170;8.596;2023-02-01T01:51:52;1.40;99.90
21662;DHT22;10992;48.170;8.596;2023-02-01T01:54:25;1.40;99.90
21662;DHT22;10992;48.170;8.596;2023-02-01T01:56:58;1.50;99.90
21662;DHT22;10992;48.170;8.596;2023-02-01T01:59:29;1.50;99.90
21662;DHT22;10992;48.170;8.596;2023-02-01T02:01:58;1.50;99.90
21662;DHT22;10992;48.170;8.596;2023-02-01T02:04:25;1.40;99.90
21662;DHT22;10992;48.170;8.596;2023-02-01T02:07:02;1.40;99.90
21662;DHT22;10992;48.170;8.596;2023-02-01T02:09:30;1.50;99.90
21662;DHT22;10992;48.170;8.596;2023-02-01T02:11:58;1.40;99.90
21662;DHT22;10992;48.170;8.596;2023-02-01T02:14:26;1.50;99.90
21662;DHT22;10992;48.170;8.596;2023-02-01T02:23:36;1.50;99.90
21662;DHT22;10992;48.170;8.596;2023-02-01T02:36:55;1.40;99.90
21662;DHT22;10992;48.170;8.596;2023-02-01T02:42:48;1.30;99.90
21662;DHT22;10992;48.170;8.596;2023-02-01T02:45:48;1.30;99.90
21662;DHT22;10992;48.170;8.596;2023-02-01T02:48:49;1.30;99.90
21662;DHT22;10992;48.170;8.596;2023-02-01T02:51:45;1.30;99.90
21662;DHT22;10992;48.170;8.596;2023-02-01T02:54:39;1.30;99.90
21662;DHT22;10992;48.170;8.596;2023-02-01T02:57:30;1.30;99.90
21662;DHT22;10992;48.170;8.596;2023-02-01T03:00:19;1.30;99.90
21662;DHT22;10992;48.170;8.596;2023-02-01T03:03:06;1.30;99.90
21662;DHT22;10992;48.170;8.596;2023-02-01T03:05:52;1.30;99.90
21662;DHT22;10992;48.170;8.596;2023-02-01T03:08:28;1.30;99.90
21662;DHT22;10992;48.170;8.596;2023-02-01T03:11:09;1.30;99.90
21662;DHT22;10992;48.170;8.596;2023-02-01T03:13:56;1.30;99.90
21662;DHT22;10992;48.170;8.596;2023-02-01T03:19:12;1.20;99.90
21662;DHT22;10992;48.170;8.596;2023-02-01T03:22:29;1.20;99.90
21662;DHT22;10992;48.170;8.596;2023-02-01T03:24:55;1.20;99.90
21662;DHT22;10992;48.170;8.596;2023-02-01T03:27:31;1.30;99.90
21662;DHT22;10992;48.170;8.596;2023-02-01T03:30:11;1.20;99.90
21662;DHT22;10992;48.170;8.596;2023-02-01T03:32:42;1.20;99.90
21662;DHT22;10992;48.170;8.596;2023-02-01T03:36:05;1.30;99.90
21662;DHT22;10992;48.170;8.596;2023-02-01T03:38:51;1.30;99.90
21662;DHT22;10992;48.170;8.596;2023-02-01T03:41:30;1.30;99.90
21662;DHT22;10992;48.170;8.596;2023-02-01T03:46:46;1.20;99.90
21662;DHT22;10992;48.170;8.596;2023-02-01T03:49:20;1.30;99.90
21662;DHT22;10992;48.170;8.596;2023-02-01T03:51:50;1.30;99.90
21662;DHT22;10992;48.170;8.596;2023-02-01T03:54:18;1.30;99.90
21662;DHT22;10992;48.170;8.596;2023-02-01T03:56:47;1.30;99.90
21662;DHT22;10992;48.170;8.596;2023-02-01T03:59:15;1.30;99.90
21662;DHT22;10992;48.170;8.596;2023-02-01T04:01:42;1.30;99.90
21662;DHT22;10992;48.170;8.596;2023-02-01T04:04:09;1.30;99.90
21662;DHT22;10992;48.170;8.596;2023-02-01T04:06:37;1.30;99.90
21662;DHT22;10992;48.170;8.596;2023-02-01T04:09:05;1.30;99.90
21662;DHT22;10992;48.170;8.596;2023-02-01T04:11:32;1.30;99.90
21662;DHT22;10992;48.170;8.596;2023-02-01T04:13:59;1.30;99.90
21662;DHT22;10992;48.170;8.596;2023-02-01T04:16:31;1.30;99.90
21662;DHT22;10992;48.170;8.596;2023-02-01T04:18:59;1.30;99.90
21662;DHT22;10992;48.170;8.596;2023-02-01T04:21:26;1.30;99.90
21662;DHT22;10992;48.170;8.596;2023-02-01T04:23:54;1.30;99.90
21662;DHT22;10992;48.170;8.596;2023-02-01T04:26:21;1.30;99.90
21662;DHT22;10992;48.170;8.596;2023-02-01T04:28:48;1.30;99.90
21662;DHT22;10992;48.170;8.596;2023-02-01T04:31:16;1.30;99.90
21662;DHT22;10992;48.170;8.596;2023-02-01T04:33:44;1.30;99.90
21662;DHT22;10992;48.170;8.596;2023-02-01T04:36:10;1.20;99.90
21662;DHT22;10992;48.170;8.596;2023-02-01T04:38:37;1.30;99.90
21662;DHT22;10992;48.170;8.596;2023-02-01T04:41:05;1.30;99.90
21662;DHT22;10992;48.170;8.596;2023-02-01T04:43:32;1.30;99.90
21662;DHT22;10992;48.170;8.596;2023-02-01T04:45:59;1.40;99.90
21662;DHT22;10992;48.170;8.596;2023-02-01T04:48:25;1.30;99.90
21662;DHT22;10992;48.170;8.596;2023-02-01T04:50:53;1.30;99.90
21662;DHT22;10992;48.170;8.596;2023-02-01T04:53:20;1.30;99.90
21662;DHT22;10992;48.170;8.596;2023-02-01T04:55:48;1.30;99.90
21662;DHT22;10992;48.170;8.596;2023-02-01T04:58:16;1.20;99.90
21662;DHT22;10992;48.170;8.596;2023-02-01T05:00:43;1.20;99.90
21662;DHT22;10992;48.170;8.596;2023-02-01T05:03:10;1.30;99.90
21662;DHT22;10992;48.170;8.596;2023-02-01T05:05:37;1.30;99.90
21662;DHT22;10992;48.170;8.596;2023-02-01T05:08:04;1.30;99.90
21662;DHT22;10992;48.170;8.596;2023-02-01T05:10:31;1.30;99.90
21662;DHT22;10992;48.170;8.596;2023-02-01T05:12:58;1.30;99.90
21662;DHT22;10992;48.170;8.596;2023-02-01T05:15:44;1.30;99.90
21662;DHT22;10992;48.170;8.596;2023-02-01T05:18:12;1.30;99.90
21662;DHT22;10992;48.170;8.596;2023-02-01T05:20:40;1.40;99.90
21662;DHT22;10992;48.170;8.596;2023-02-01T05:23:07;1.40;99.90
21662;DHT22;10992;48.170;8.596;2023-02-01T05:25:34;1.40;99.90
21662;DHT22;10992;48.170;8.596;2023-02-01T05:28:01;1.40;99.90
21662;DHT22;10992;48.170;8.596;2023-02-01T05:30:28;1.40;99.90
21662;DHT22;10992;48.170;8.596;2023-02-01T05:32:55;1.40;99.90
21662;DHT22;10992;48.170;8.596;2023-02-01T05:35:22;1.40;99.90
21662;DHT22;10992;48.170;8.596;2023-02-01T05:37:49;1.50;99.90
21662;DHT22;10992;48.170;8.596;2023-02-01T05:40:16;1.50;99.90
21662;DHT22;10992;48.170;8.596;2023-02-01T05:42:43;1.50;99.90
21662;DHT22;10992;48.170;8.596;2023-02-01T05:45:10;1.60;99.90
21662;DHT22;10992;48.170;8.596;2023-02-01T05:47:37;1.60;99.90
21662;DHT22;10992;48.170;8.596;2023-02-01T05:50:06;1.70;99.90
21662;DHT22;10992;48.170;8.596;2023-02-01T05:52:33;1.70;99.90
21662;DHT22;10992;48.170;8.596;2023-02-01T05:55:00;1.70;99.90
21662;DHT22;10992;48.170;8.596;2023-02-01T05:57:27;1.70;99.90
21662;DHT22;10992;48.170;8.596;2023-02-01T05:59:55;1.70;99.90
21662;DHT22;10992;48.170;8.596;2023-02-01T06:02:22;1.70;99.90
21662;DHT22;10992;48.170;8.596;2023-02-01T06:04:50;1.70;99.90
21662;DHT22;10992;48.170;8.596;2023-02-01T06:07:18;1.70;99.90
21662;DHT22;10992;48.170;8.596;2023-02-01T06:09:45;1.80;99.90
21662;DHT22;10992;48.170;8.596;2023-02-01T06:12:12;1.80;99.90
21662;DHT22;10992;48.170;8.596;2023-02-01T06:14:39;1.80;99.90
21662;DHT22;10992;48.170;8.596;2023-02-01T06:17:06;1.90;99.90
21662;DHT22;10992;48.170;8.596;2023-02-01T06:19:33;1.90;99.90
21662;DHT22;10992;48.170;8.596;2023-02-01T06:22:00;1.90;99.90
21662;DHT22;10992;48.170;8.596;2023-02-01T06:24:27;1.90;99.90
21662;DHT22;10992;48.170;8.596;2023-02-01T06:26:54;1.90;99.90
21662;DHT22;10992;48.170;8.596;2023-02-01T06:29:21;1.90;99.90
21662;DHT22;10992;48.170;8.596;2023-02-01T06:31:48;1.90;99.90
21662;DHT22;10992;48.170;8.596;2023-02-01T06:34:15;1.90;99.90
21662;DHT22;10992;48.170;8.596;2023-02-01T06:36:42;1.80;99.90
21662;DHT22;10992;48.170;8.596;2023-02-01T06:39:09;1.90;99.90
21662;DHT22;10992;48.170;8.596;2023-02-01T06:41:36;1.90;99.90
21662;DHT22;10992;48.170;8.596;2023-02-01T06:44:03;1.90;99.90
21662;DHT22;10992;48.170;8.596;2023-02-01T06:46:30;1.80;99.90
21662;DHT22;10992;48.170;8.596;2023-02-01T06:48:57;1.90;99.90
21662;DHT22;10992;48.170;8.596;2023-02-01T06:51:26;2.00;99.90
21662;DHT22;10992;48.170;8.596;2023-02-01T06:53:53;2.20;99.90
21662;DHT22;10992;48.170;8.596;2023-02-01T06:56:20;2.30;99.90
21662;DHT22;10992;48.170;8.596;2023-02-01T06:58:48;2.40;99.90
21662;DHT22;10992;48.170;8.596;2023-02-01T07:01:15;2.20;99.90
21662;DHT22;10992;48.170;8.596;2023-02-01T07:03:42;2.10;99.90
21662;DHT22;10992;48.170;8.596;2023-02-01T07:06:13;2.00;99.90
21662;DHT22;10992;48.170;8.596;2023-02-01T07:08:43;1.90;99.90
21662;DHT22;10992;48.170;8.596;2023-02-01T07:11:11;1.90;99.90
21662;DHT22;10992;48.170;8.596;2023-02-01T07:13:39;1.80;99.90
21662;DHT22;10992;48.170;8.596;2023-02-01T07:16:12;1.80;99.90
21662;DHT22;10992;48.170;8.596;2023-02-01T07:18:40;1.70;99.90
21662;DHT22;10992;48.170;8.596;2023-02-01T07:21:07;1.70;99.90
21662;DHT22;10992;48.170;8.596;2023-02-01T07:23:34;1.70;99.90
21662;DHT22;10992;48.170;8.596;2023-02-01T07:26:04;1.70;99.90
21662;DHT22;10992;48.170;8.596;2023-02-01T07:28:33;1.70;99.90
21662;DHT22;10992;48.170;8.596;2023-02-01T07:31:12;1.70;99.90
21662;DHT22;10992;48.170;8.596;2023-02-01T07:33:42;1.70;99.90
21662;DHT22;10992;48.170;8.596;2023-02-01T07:36:12;1.80;99.90
21662;DHT22;10992;48.170;8.596;2023-02-01T07:38:40;1.80;99.90
21662;DHT22;10992;48.170;8.596;2023-02-01T07:41:07;1.80;99.90
21662;DHT22;10992;48.170;8.596;2023-02-01T07:43:35;1.80;99.90
21662;DHT22;10992;48.170;8.596;2023-02-01T07:46:03;1.80;99.90
21662;DHT22;10992;48.170;8.596;2023-02-01T07:48:30;1.80;99.90
21662;DHT22;10992;48.170;8.596;2023-02-01T07:51:05;1.90;99.90
21662;DHT22;10992;48.170;8.596;2023-02-01T07:53:33;1.90;99.90
21662;DHT22;10992;48.170;8.596;2023-02-01T07:56:01;1.90;99.90
21662;DHT22;10992;48.170;8.596;2023-02-01T07:58:29;1.90;99.90
21662;DHT22;10992;48.170;8.596;2023-02-01T08:00:56;1.90;99.90
21662;DHT22;10992;48.170;8.596;2023-02-01T08:03:41;1.90;99.90
21662;DHT22;10992;48.170;8.596;2023-02-01T08:06:08;1.90;99.90
21662;DHT22;10992;48.170;8.596;2023-02-01T08:08:35;1.90;99.90
21662;DHT22;10992;48.170;8.596;2023-02-01T08:11:04;1.90;99.90
21662;DHT22;10992;48.170;8.596;2023-02-01T08:13:33;1.90;99.90
21662;DHT22;10992;48.170;8.596;2023-02-01T08:16:05;1.90;99.90
21662;DHT22;10992;48.170;8.596;2023-02-01T08:18:32;2.00;99.90
21662;DHT22;10992;48.170;8.596;2023-02-01T08:21:08;2.10;99.90
21662;DHT22;10992;48.170;8.596;2023-02-01T08:23:37;2.10;99.90
21662;DHT22;10992;48.170;8.596;2023-02-01T08:26:11;2.10;99.90
21662;DHT22;10992;48.170;8.596;2023-02-01T08:28:39;2.20;99.90
21662;DHT22;10992;48.170;8.596;2023-02-01T08:31:09;2.20;99.90
21662;DHT22;10992;48.170;8.596;2023-02-01T08:33:37;2.20;99.90
21662;DHT22;10992;48.170;8.596;2023-02-01T08:36:06;2.30;99.90
21662;DHT22;10992;48.170;8.596;2023-02-01T08:38:35;2.30;99.90
21662;DHT22;10992;48.170;8.596;2023-02-01T08:41:10;2.40;99.90
21662;DHT22;10992;48.170;8.596;2023-02-01T08:43:37;2.40;99.90
21662;DHT22;10992;48.170;8.596;2023-02-01T08:46:05;2.50;99.90
21662;DHT22;10992;48.170;8.596;2023-02-01T08:48:32;2.60;99.90
21662;DHT22;10992;48.170;8.596;2023-02-01T08:51:08;2.80;99.90
21662;DHT22;10992;48.170;8.596;2023-02-01T08:53:35;2.80;99.90
21662;DHT22;10992;48.170;8.596;2023-02-01T08:56:03;2.90;99.90
21662;DHT22;10992;48.170;8.596;2023-02-01T08:58:30;3.00;99.90
21662;DHT22;10992;48.170;8.596;2023-02-01T09:01:05;3.10;99.90
21662;DHT22;10992;48.170;8.596;2023-02-01T09:03:33;3.20;99.90
21662;DHT22;10992;48.170;8.596;2023-02-01T09:06:26;3.40;99.90
21662;DHT22;10992;48.170;8.596;2023-02-01T09:08:53;3.50;99.90
21662;DHT22;10992;48.170;8.596;2023-02-01T09:11:20;3.70;99.90
21662;DHT22;10992;48.170;8.596;2023-02-01T09:13:48;3.60;99.90
21662;DHT22;10992;48.170;8.596;2023-02-01T09:16:15;3.70;99.90
21662;DHT22;10992;48.170;8.596;2023-02-01T09:18:42;3.80;99.90
21662;DHT22;10992;48.170;8.596;2023-02-01T09:21:29;3.70;99.90
21662;DHT22;10992;48.170;8.596;2023-02-01T09:23:56;3.70;99.90
21662;DHT22;10992;48.170;8.596;2023-02-01T09:26:23;3.60;99.90
21662;DHT22;10992;48.170;8.596;2023-02-01T09:28:59;3.70;99.90
21662;DHT22;10992;48.170;8.596;2023-02-01T09:31:26;3.60;99.90
21662;DHT22;10992;48.170;8.596;2023-02-01T09:33:53;3.50;99.90
21662;DHT22;10992;48.170;8.596;2023-02-01T09:36:20;3.50;99.90
21662;DHT22;10992;48.170;8.596;2023-02-01T09:38:47;3.40;99.90
21662;DHT22;10992;48.170;8.596;2023-02-01T09:47:22;3.20;99.90
21662;DHT22;10992;48.170;8.596;2023-02-01T09:49:57;3.10;99.90
21662;DHT22;10992;48.170;8.596;2023-02-01T09:52:34;3.20;99.90
21662;DHT22;10992;48.170;8.596;2023-02-01T09:58:02;3.30;99.90
21662;DHT22;10992;48.170;8.596;2023-02-01T10:00:34;3.30;99.90
21662;DHT22;10992;48.170;8.596;2023-02-01T10:03:02;3.50;99.90
21662;DHT22;10992;48.170;8.596;2023-02-01T10:11:54;3.70;99.90
21662;DHT22;10992;48.170;8.596;2023-02-01T10:25:37;3.60;99.90
21662;DHT22;10992;48.170;8.596;2023-02-01T10:28:13;3.50;99.90
21662;DHT22;10992;48.170;8.596;2023-02-01T10:30:46;3.50;99.90
21662;DHT22;10992;48.170;8.596;2023-02-01T10:33:22;3.50;99.90
21662;DHT22;10992;48.170;8.596;2023-02-01T10:35:58;3.50;99.90
21662;DHT22;10992;48.170;8.596;2023-02-01T10:38:29;3.50;99.90
21662;DHT22;10992;48.170;8.596;2023-02-01T10:41:02;3.50;99.90
21662;DHT22;10992;48.170;8.596;2023-02-01T10:43:30;3.50;99.90
21662;DHT22;10992;48.170;8.596;2023-02-01T10:45:57;3.60;99.90
21662;DHT22;10992;48.170;8.596;2023-02-01T10:48:24;3.70;99.90
21662;DHT22;10992;48.170;8.596;2023-02-01T10:50:58;3.70;99.90
21662;DHT22;10992;48.170;8.596;2023-02-01T10:53:35;3.70;99.90
21662;DHT22;10992;48.170;8.596;2023-02-01T10:56:08;3.70;99.90
21662;DHT22;10992;48.170;8.596;2023-02-01T10:58:42;3.90;99.90
21662;DHT22;10992;48.170;8.596;2023-02-01T11:01:24;4.20;99.90
21662;DHT22;10992;48.170;8.596;2023-02-01T11:03:58;4.70;99.90
21662;DHT22;10992;48.170;8.596;2023-02-01T11:06:32;4.70;99.90
21662;DHT22;10992;48.170;8.596;2023-02-01T11:11:56;5.40;99.90
21662;DHT22;10992;48.170;8.596;2023-02-01T11:14:39;5.80;99.90
21662;DHT22;10992;48.170;8.596;2023-02-01T11:17:32;5.70;99.90
21662;DHT22;10992;48.170;8.596;2023-02-01T11:20:02;5.90;99.90
21662;DHT22;10992;48.170;8.596;2023-02-01T11:22:30;6.10;99.90
21662;DHT22;10992;48.170;8.596;2023-02-01T11:24:58;5.80;99.90
21662;DHT22;10992;48.170;8.596;2023-02-01T11:27:26;5.40;99.90
21662;DHT22;10992;48.170;8.596;2023-02-01T11:29:58;5.00;99.90
21662;DHT22;10992;48.170;8.596;2023-02-01T11:32:26;4.60;99.90
21662;DHT22;10992;48.170;8.596;2023-02-01T11:34:57;4.60;99.90
21662;DHT22;10992;48.170;8.596;2023-02-01T11:37:36;4.70;99.90
21662;DHT22;10992;48.170;8.596;2023-02-01T11:40:25;4.60;99.90
21662;DHT22;10992;48.170;8.596;2023-02-01T11:43:30;4.30;99.90
21662;DHT22;10992;48.170;8.596;2023-02-01T11:46:02;4.20;99.90
21662;DHT22;10992;48.170;8.596;2023-02-01T11:48:33;4.20;99.90
21662;DHT22;10992;48.170;8.596;2023-02-01T11:51:21;4.20;99.90
21662;DHT22;10992;48.170;8.596;2023-02-01T11:57:29;4.00;99.90
21662;DHT22;10992;48.170;8.596;2023-02-01T12:03:07;4.00;99.90
21662;DHT22;10992;48.170;8.596;2023-02-01T12:05:53;3.90;99.90
21662;DHT22;10992;48.170;8.596;2023-02-01T12:16:47;3.80;99.90
21662;DHT22;10992;48.170;8.596;2023-02-01T12:25:33;4.10;99.90
21662;DHT22;10992;48.170;8.596;2023-02-01T12:44:03;4.80;99.90
21662;DHT22;10992;48.170;8.596;2023-02-01T12:46:35;4.50;99.90
21662;DHT22;10992;48.170;8.596;2023-02-01T12:57:38;3.80;99.90
21662;DHT22;10992;48.170;8.596;2023-02-01T13:03:03;3.60;99.90
21662;DHT22;10992;48.170;8.596;2023-02-01T13:11:41;3.50;99.90
21662;DHT22;10992;48.170;8.596;2023-02-01T13:14:29;3.70;99.90
21662;DHT22;10992;48.170;8.596;2023-02-01T13:17:19;3.80;99.90
21662;DHT22;10992;48.170;8.596;2023-02-01T13:19:54;3.80;99.90
21662;DHT22;10992;48.170;8.596;2023-02-01T13:25:01;3.50;99.90
21662;DHT22;10992;48.170;8.596;2023-02-01T13:27:30;3.50;99.90
21662;DHT22;10992;48.170;8.596;2023-02-01T13:36:03;3.50;99.90
21662;DHT22;10992;48.170;8.596;2023-02-01T13:41:29;3.60;99.90
21662;DHT22;10992;48.170;8.596;2023-02-01T13:44:01;3.60;99.90
21662;DHT22;10992;48.170;8.596;2023-02-01T13:46:29;3.60;99.90
21662;DHT22;10992;48.170;8.596;2023-02-01T13:48:59;3.60;99.90
21662;DHT22;10992;48.170;8.596;2023-02-01T13:51:49;3.60;99.90
21662;DHT22;10992;48.170;8.596;2023-02-01T13:54:36;3.50;99.90
21662;DHT22;10992;48.170;8.596;2023-02-01T13:57:13;3.50;99.90
21662;DHT22;10992;48.170;8.596;2023-02-01T14:05:03;3.60;99.90
21662;DHT22;10992;48.170;8.596;2023-02-01T14:07:30;3.60;99.90
21662;DHT22;10992;48.170;8.596;2023-02-01T14:09:58;3.50;99.90
21662;DHT22;10992;48.170;8.596;2023-02-01T14:12:49;3.60;99.90
21662;DHT22;10992;48.170;8.596;2023-02-01T14:15:20;3.60;99.90
21662;DHT22;10992;48.170;8.596;2023-02-01T14:17:50;3.60;99.90
21662;DHT22;10992;48.170;8.596;2023-02-01T14:20:42;3.60;99.90
21662;DHT22;10992;48.170;8.596;2023-02-01T14:23:18;3.60;99.90
21662;DHT22;10992;48.170;8.596;2023-02-01T14:25:48;3.50;99.90
21662;DHT22;10992;48.170;8.596;2023-02-01T14:28:27;3.50;99.90
21662;DHT22;10992;48.170;8.596;2023-02-01T14:30:57;3.50;99.90
21662;DHT22;10992;48.170;8.596;2023-02-01T14:33:26;3.40;99.90
21662;DHT22;10992;48.170;8.596;2023-02-01T14:36:10;3.30;99.90
21662;DHT22;10992;48.170;8.596;2023-02-01T14:38:38;3.30;99.90
21662;DHT22;10992;48.170;8.596;2023-02-01T14:41:32;3.40;99.90
21662;DHT22;10992;48.170;8.596;2023-02-01T14:47:08;3.40;99.90
21662;DHT22;10992;48.170;8.596;2023-02-01T14:50:04;3.50;99.90
21662;DHT22;10992;48.170;8.596;2023-02-01T14:52:40;3.40;99.90
21662;DHT22;10992;48.170;8.596;2023-02-01T14:57:53;3.50;99.90
21662;DHT22;10992;48.170;8.596;2023-02-01T15:00:25;3.40;99.90
21662;DHT22;10992;48.170;8.596;2023-02-01T15:02:54;3.50;99.90
21662;DHT22;10992;48.170;8.596;2023-02-01T15:07:50;3.40;99.90
21662;DHT22;10992;48.170;8.596;2023-02-01T15:10:18;3.40;99.90
21662;DHT22;10992;48.170;8.596;2023-02-01T15:12:46;3.40;99.90
21662;DHT22;10992;48.170;8.596;2023-02-01T15:15:21;3.40;99.90
21662;DHT22;10992;48.170;8.596;2023-02-01T15:17:57;3.30;99.90
21662;DHT22;10992;48.170;8.596;2023-02-01T15:20:29;3.30;99.90
21662;DHT22;10992;48.170;8.596;2023-02-01T15:23:02;3.30;99.90
21662;DHT22;10992;48.170;8.596;2023-02-01T15:25:33;3.20;99.90
21662;DHT22;10992;48.170;8.596;2023-02-01T15:28:04;3.20;99.90
21662;DHT22;10992;48.170;8.596;2023-02-01T15:30:34;3.20;99.90
21662;DHT22;10992;48.170;8.596;2023-02-01T15:33:07;3.20;99.90
21662;DHT22;10992;48.170;8.596;2023-02-01T15:35:48;3.10;99.90
21662;DHT22;10992;48.170;8.596;2023-02-01T15:40:58;3.10;99.90
21662;DHT22;10992;48.170;8.596;2023-02-01T15:43:26;3.10;99.90
21662;DHT22;10992;48.170;8.596;2023-02-01T15:45:59;3.10;99.90
21662;DHT22;10992;48.170;8.596;2023-02-01T15:48:34;3.10;99.90
21662;DHT22;10992;48.170;8.596;2023-02-01T15:51:03;3.00;99.90
21662;DHT22;10992;48.170;8.596;2023-02-01T15:53:30;3.00;99.90
21662;DHT22;10992;48.170;8.596;2023-02-01T15:56:01;3.00;99.90
21662;DHT22;10992;48.170;8.596;2023-02-01T15:58:29;3.00;99.90
21662;DHT22;10992;48.170;8.596;2023-02-01T16:01:03;3.00;99.90
21662;DHT22;10992;48.170;8.596;2023-02-01T16:03:41;2.90;99.90
21662;DHT22;10992;48.170;8.596;2023-02-01T16:06:27;2.90;99.90
21662;DHT22;10992;48.170;8.596;2023-02-01T16:09:15;2.90;99.90
21662;DHT22;10992;48.170;8.596;2023-02-01T16:11:54;2.80;99.90
21662;DHT22;10992;48.170;8.596;2023-02-01T16:14:21;2.80;99.90
21662;DHT22;10992;48.170;8.596;2023-02-01T16:16:49;2.80;99.90
21662;DHT22;10992;48.170;8.596;2023-02-01T16:19:16;2.80;99.90
21662;DHT22;10992;48.170;8.596;2023-02-01T16:21:43;1.90;99.90
21662;DHT22;10992;48.170;8.596;2023-02-01T16:24:10;2.70;99.90
21662;DHT22;10992;48.170;8.596;2023-02-01T16:26:37;2.70;99.90
21662;DHT22;10992;48.170;8.596;2023-02-01T16:29:05;2.60;99.90
21662;DHT22;10992;48.170;8.596;2023-02-01T16:31:37;2.60;99.90
21662;DHT22;10992;48.170;8.596;2023-02-01T16:34:05;2.50;99.90
21662;DHT22;10992;48.170;8.596;2023-02-01T16:36:33;2.50;99.90
21662;DHT22;10992;48.170;8.596;2023-02-01T16:39:00;2.50;99.90
21662;DHT22;10992;48.170;8.596;2023-02-01T16:41:29;2.50;99.90
21662;DHT22;10992;48.170;8.596;2023-02-01T16:43:56;2.50;99.90
21662;DHT22;10992;48.170;8.596;2023-02-01T16:46:26;2.50;99.90
21662;DHT22;10992;48.170;8.596;2023-02-01T16:48:58;2.50;99.90
21662;DHT22;10992;48.170;8.596;2023-02-01T16:51:29;2.40;99.90
21662;DHT22;10992;48.170;8.596;2023-02-01T16:54:02;2.30;99.90
21662;DHT22;10992;48.170;8.596;2023-02-01T16:56:32;2.30;99.90
21662;DHT22;10992;48.170;8.596;2023-02-01T16:59:00;2.30;99.90
21662;DHT22;10992;48.170;8.596;2023-02-01T17:01:27;2.30;99.90
21662;DHT22;10992;48.170;8.596;2023-02-01T17:03:55;2.30;99.90
21662;DHT22;10992;48.170;8.596;2023-02-01T17:06:25;2.30;99.90
21662;DHT22;10992;48.170;8.596;2023-02-01T17:08:55;2.40;99.90
21662;DHT22;10992;48.170;8.596;2023-02-01T17:11:22;2.40;99.90
21662;DHT22;10992;48.170;8.596;2023-02-01T17:13:50;2.40;99.90
21662;DHT22;10992;48.170;8.596;2023-02-01T17:16:30;2.40;99.90
21662;DHT22;10992;48.170;8.596;2023-02-01T17:19:15;2.40;99.90
21662;DHT22;10992;48.170;8.596;2023-02-01T17:21:52;2.50;99.90
21662;DHT22;10992;48.170;8.596;2023-02-01T17:24:24;2.40;99.90
21662;DHT22;10992;48.170;8.596;2023-02-01T17:26:54;2.40;99.90
21662;DHT22;10992;48.170;8.596;2023-02-01T17:29:21;2.30;99.90
21662;DHT22;10992;48.170;8.596;2023-02-01T17:31:51;2.30;99.90
21662;DHT22;10992;48.170;8.596;2023-02-01T17:34:19;2.30;99.90
21662;DHT22;10992;48.170;8.596;2023-02-01T17:36:46;2.20;99.90
21662;DHT22;10992;48.170;8.596;2023-02-01T17:39:14;2.20;99.90
21662;DHT22;10992;48.170;8.596;2023-02-01T17:42:02;2.30;99.90
21662;DHT22;10992;48.170;8.596;2023-02-01T17:44:30;2.30;99.90
21662;DHT22;10992;48.170;8.596;2023-02-01T17:46:57;2.30;99.90
21662;DHT22;10992;48.170;8.596;2023-02-01T17:49:26;2.30;99.90
21662;DHT22;10992;48.170;8.596;2023-02-01T17:51:55;2.30;99.90
21662;DHT22;10992;48.170;8.596;2023-02-01T17:54:23;2.40;99.90
21662;DHT22;10992;48.170;8.596;2023-02-01T17:56:51;2.40;99.90
21662;DHT22;10992;48.170;8.596;2023-02-01T17:59:18;2.40;99.90
21662;DHT22;10992;48.170;8.596;2023-02-01T18:01:45;2.40;99.90
21662;DHT22;10992;48.170;8.596;2023-02-01T18:04:15;2.40;99.90
21662;DHT22;10992;48.170;8.596;2023-02-01T18:06:44;2.40;99.90
21662;DHT22;10992;48.170;8.596;2023-02-01T18:09:11;2.40;99.90
21662;DHT22;10992;48.170;8.596;2023-02-01T18:11:38;2.40;99.90
21662;DHT22;10992;48.170;8.596;2023-02-01T18:14:11;2.30;99.90
21662;DHT22;10992;48.170;8.596;2023-02-01T18:16:38;2.30;99.90
21662;DHT22;10992;48.170;8.596;2023-02-01T18:19:06;2.20;99.90
21662;DHT22;10992;48.170;8.596;2023-02-01T18:21:37;2.20;99.90
21662;DHT22;10992;48.170;8.596;2023-02-01T18:24:05;2.20;99.90
21662;DHT22;10992;48.170;8.596;2023-02-01T18:26:32;2.20;99.90
21662;DHT22;10992;48.170;8.596;2023-02-01T18:28:59;2.20;99.90